Time;durP1;ratioP1;P1;durP2;ratioP2;P2;SDS_P1;SDS_P2;PMS_P1;PMS_P2;Temp;Humidity;BMP_temperature;BMP_pressure;BME280_temperature;BME280_humidity;BME280_pressure;Samples;Min_cycle;Max_cycle;Signal;HPM_P1;HPM_P2
2023/01/01 00:01:46;;;;;;;13.50;4.43;;;;;;;15.34;56.26;100758.41;4898061;29;20382;-67
2023/01/01 00:04:14;;;;;;;13.85;4.80;;;;;;;15.39;57.21;100772.44;4903812;29;20256;-67
2023/01/01 00:06:40;;;;;;;12.63;4.45;;;;;;;15.33;58.10;100772.41;4902905;29;20302;-67
2023/01/01 00:11:50;;;;;;;14.07;4.72;;;;;;;15.23;56.97;100784.63;4892389;29;20179;-67
2023/01/01 00:14:15;;;;;;;12.05;5.00;;;;;;;15.20;57.90;100779.38;4904566;29;20036;-67
2023/01/01 00:16:40;;;;;;;9.48;4.20;;;;;;;15.18;57.30;100791.59;4891965;29;20075;-67
2023/01/01 00:19:06;;;;;;;10.32;4.00;;;;;;;15.17;56.92;100782.00;4892128;29;20024;-67
2023/01/01 00:21:31;;;;;;;10.65;3.95;;;;;;;15.16;56.61;100788.09;4906648;29;20033;-67
2023/01/01 00:23:56;;;;;;;14.73;5.03;;;;;;;15.17;56.63;100769.75;4892334;29;20105;-67
2023/01/01 00:26:21;;;;;;;16.25;4.32;;;;;;;15.22;55.89;100790.75;4891619;29;20295;-67
2023/01/01 00:28:47;;;;;;;11.35;4.00;;;;;;;15.24;55.26;100787.25;4891918;29;20035;-67
2023/01/01 00:31:18;;;;;;;11.18;4.35;;;;;;;15.24;55.64;100778.53;4891788;29;20017;-67
2023/01/01 00:33:44;;;;;;;13.75;4.00;;;;;;;15.20;56.66;100793.38;4903862;29;20094;-67
2023/01/01 00:36:14;;;;;;;11.30;4.03;;;;;;;15.19;55.03;100799.47;4892817;29;20033;-67
2023/01/01 00:38:40;;;;;;;12.38;5.20;;;;;;;15.16;56.95;100761.88;4891956;29;20029;-67
2023/01/01 00:41:05;;;;;;;11.13;4.40;;;;;;;15.15;56.35;100783.72;4891406;29;20096;-67
2023/01/01 00:43:31;;;;;;;12.15;4.43;;;;;;;15.10;56.79;100789.81;4890361;29;20033;-67
2023/01/01 00:45:57;;;;;;;9.15;4.15;;;;;;;15.11;56.75;100775.84;4892044;29;20021;-67
2023/01/01 00:48:22;;;;;;;12.88;4.18;;;;;;;15.13;56.97;100788.97;4891395;29;20031;-67
2023/01/01 00:50:49;;;;;;;12.18;4.45;;;;;;;15.12;56.52;100774.97;4890141;29;20025;-67
2023/01/01 00:53:14;;;;;;;10.30;4.40;;;;;;;15.12;56.72;100774.13;4891338;29;20035;-67
2023/01/01 00:55:40;;;;;;;7.97;4.15;;;;;;;15.14;56.50;100769.72;4895636;29;20028;-67
2023/01/01 00:58:06;;;;;;;13.23;5.25;;;;;;;15.12;56.81;100782.84;4889910;29;20142;-67
2023/01/01 01:00:32;;;;;;;9.63;4.55;;;;;;;15.10;57.22;100781.09;4891043;29;20659;-67
2023/01/01 01:02:57;;;;;;;9.27;3.90;;;;;;;15.17;56.14;100798.59;4896972;29;20334;-67
2023/01/01 01:05:22;;;;;;;13.07;4.07;;;;;;;15.16;56.43;100807.34;4909834;29;20091;-67
2023/01/01 01:07:48;;;;;;;9.68;3.55;;;;;;;15.15;56.36;100791.59;4910213;29;20032;-67
2023/01/01 01:10:13;;;;;;;10.52;3.88;;;;;;;15.11;56.41;100795.97;4908568;29;20098;-67
2023/01/01 01:12:39;;;;;;;9.07;3.47;;;;;;;15.10;56.60;100808.19;4891080;29;20016;-67
2023/01/01 01:15:06;;;;;;;9.45;3.83;;;;;;;15.09;56.73;100795.97;4890816;29;20156;-67
2023/01/01 01:17:31;;;;;;;13.13;3.80;;;;;;;15.08;56.30;100790.72;4890889;29;20198;-67
2023/01/01 01:19:56;;;;;;;8.30;3.33;;;;;;;15.10;56.45;100773.22;4891015;29;20029;-67
2023/01/01 01:22:22;;;;;;;11.95;3.50;;;;;;;15.08;56.84;100777.59;4890676;29;20069;-67
2023/01/01 01:24:47;;;;;;;11.05;3.50;;;;;;;15.02;57.09;100786.31;4897540;29;20137;-67
2023/01/01 01:27:12;;;;;;;8.27;3.10;;;;;;;14.98;57.25;100792.41;4890655;29;20025;-67
2023/01/01 01:29:38;;;;;;;9.98;3.17;;;;;;;14.95;57.59;100809.00;4890674;29;20267;-66
2023/01/01 01:32:04;;;;;;;8.30;3.42;;;;;;;14.92;56.99;100789.78;4898099;29;20052;-67
2023/01/01 01:34:29;;;;;;;11.85;3.63;;;;;;;14.92;57.51;100821.25;4891161;29;20041;-67
2023/01/01 01:36:55;;;;;;;9.63;3.22;;;;;;;14.90;57.03;100808.13;4890503;29;20238;-67
2023/01/01 01:39:20;;;;;;;12.88;3.60;;;;;;;14.89;56.78;100816.84;4890344;29;20027;-67
2023/01/01 01:41:45;;;;;;;9.13;3.35;;;;;;;14.86;57.27;100821.19;4890368;29;20303;-67
2023/01/01 01:44:47;;;;;;;11.20;3.28;;;;;;;14.81;57.34;100817.69;4891471;29;20234;-67
2023/01/01 01:47:21;;;;;;;9.90;3.42;;;;;;;14.76;57.61;100808.03;4889926;29;20250;-66
2023/01/01 01:49:48;;;;;;;8.85;3.10;;;;;;;14.71;57.45;100807.13;4890366;29;20061;-67
2023/01/01 01:52:13;;;;;;;11.23;3.70;;;;;;;14.67;57.19;100823.72;4896481;29;20040;-67
2023/01/01 01:54:40;;;;;;;8.45;3.35;;;;;;;14.63;57.51;100832.44;4909120;29;20043;-67
2023/01/01 01:57:08;;;;;;;8.82;2.97;;;;;;;14.58;57.47;100829.75;4908910;29;20024;-67
2023/01/01 01:59:37;;;;;;;11.82;3.50;;;;;;;14.58;57.70;100834.09;4904672;29;20191;-67
2023/01/01 02:02:13;;;;;;;10.77;3.55;;;;;;;14.53;57.75;100839.31;4907642;29;20063;-67
2023/01/01 02:04:39;;;;;;;12.05;3.50;;;;;;;14.52;57.82;100841.94;4907287;29;20203;-67
2023/01/01 02:07:06;;;;;;;9.07;3.33;;;;;;;14.49;58.32;100842.78;4907916;29;20028;-66
2023/01/01 02:09:31;;;;;;;9.68;3.40;;;;;;;14.44;57.98;100845.38;4904067;29;20055;-66
2023/01/01 02:11:57;;;;;;;9.82;3.60;;;;;;;14.43;58.59;100858.47;4890108;29;20017;-67
2023/01/01 02:14:23;;;;;;;11.15;3.65;;;;;;;14.39;58.62;100862.81;4890401;29;20272;-67
2023/01/01 02:17:00;;;;;;;10.43;3.08;;;;;;;14.37;58.44;100856.69;4894217;29;20049;-66
2023/01/01 02:19:36;;;;;;;8.68;2.80;;;;;;;14.37;57.68;100851.44;4900927;29;20028;-67
2023/01/01 02:22:23;;;;;;;9.32;3.45;;;;;;;14.40;58.11;100851.47;4890080;29;20250;-66
2023/01/01 02:25:11;;;;;;;11.45;3.33;;;;;;;14.38;57.83;100853.22;4889826;29;20029;-66
2023/01/01 02:28:00;;;;;;;9.18;3.10;;;;;;;14.38;58.47;100847.06;4889830;29;20032;-69
2023/01/01 02:30:28;;;;;;;7.75;2.70;;;;;;;14.35;58.07;100840.06;4898323;29;20275;-69
2023/01/01 02:32:59;;;;;;;10.05;2.60;;;;;;;14.34;57.41;100854.03;4902274;29;20020;-69
2023/01/01 02:35:37;;;;;;;13.35;3.28;;;;;;;14.36;57.71;100849.69;4904947;29;20022;-69
2023/01/01 02:38:22;;;;;;;10.68;2.90;;;;;;;14.33;57.45;100854.03;4898876;29;20192;-69
2023/01/01 02:40:56;;;;;;;12.93;3.55;;;;;;;14.30;57.95;100844.41;4901844;29;20035;-69
2023/01/01 02:43:21;;;;;;;10.10;3.08;;;;;;;14.30;57.79;100843.53;4897785;29;20029;-68
2023/01/01 02:45:47;;;;;;;8.93;2.42;;;;;;;14.27;58.07;100849.63;4904356;29;20039;-69
2023/01/01 02:48:43;;;;;;;10.40;3.28;;;;;;;14.27;59.29;100839.13;4892158;29;20021;-69
2023/01/01 02:51:12;;;;;;;6.65;2.60;;;;;;;14.24;57.66;100844.34;4888968;29;20033;-68
2023/01/01 02:53:44;;;;;;;10.82;2.97;;;;;;;14.26;58.42;100863.56;4901613;29;20048;-69
2023/01/01 02:56:29;;;;;;;10.40;3.08;;;;;;;14.25;58.59;100862.72;4908260;29;20278;-69
2023/01/01 03:02:24;;;;;;;7.97;3.17;;;;;;;14.20;59.11;100864.41;4908161;29;20068;-69
2023/01/01 03:05:07;;;;;;;8.88;2.70;;;;;;;14.17;59.95;100860.88;4900512;29;20044;-69
2023/01/01 03:07:50;;;;;;;9.38;2.65;;;;;;;14.15;59.37;100875.69;4889307;29;20033;-69
2023/01/01 03:10:23;;;;;;;7.20;2.63;;;;;;;14.14;59.72;100882.69;4889247;29;20084;-69
2023/01/01 03:12:58;;;;;;;6.53;2.83;;;;;;;14.14;59.64;100884.44;4889523;29;20017;-69
2023/01/01 03:15:30;;;;;;;10.93;2.95;;;;;;;14.13;59.38;100873.06;4889503;29;20025;-70
2023/01/01 03:18:08;;;;;;;9.77;2.75;;;;;;;14.16;60.16;100862.59;4890158;29;20024;-69
2023/01/01 03:20:39;;;;;;;7.78;2.78;;;;;;;14.13;59.66;100888.78;4896663;29;20037;-69
2023/01/01 03:23:12;;;;;;;9.55;2.83;;;;;;;14.11;60.48;100884.38;4907020;29;20029;-69
2023/01/01 03:26:00;;;;;;;8.02;2.60;;;;;;;14.11;60.57;100879.16;4910224;29;20035;-69
2023/01/01 03:28:34;;;;;;;9.05;2.90;;;;;;;14.09;60.37;100887.91;4909755;29;20152;-69
2023/01/01 03:30:59;;;;;;;8.07;2.40;;;;;;;14.09;60.38;100890.50;4904308;29;20039;-69
2023/01/01 03:33:42;;;;;;;9.40;3.05;;;;;;;14.08;61.36;100888.75;4907083;29;20190;-69
2023/01/01 03:36:13;;;;;;;9.63;2.90;;;;;;;14.07;60.59;100884.34;4908861;29;20103;-69
2023/01/01 03:38:48;;;;;;;10.00;2.63;;;;;;;14.05;60.93;100888.72;4909872;29;20282;-69
2023/01/01 03:41:22;;;;;;;7.25;2.63;;;;;;;14.08;60.86;100906.22;4906255;29;20080;-69
2023/01/01 03:44:00;;;;;;;9.80;2.67;;;;;;;14.05;61.73;100895.72;4911334;29;20050;-69
2023/01/01 03:46:32;;;;;;;7.25;2.83;;;;;;;14.08;60.54;100891.38;4905746;29;20036;-62
2023/01/01 03:48:59;;;;;;;9.93;2.90;;;;;;;14.07;60.82;100910.56;4908737;29;20275;-62
2023/01/01 03:51:39;;;;;;;7.97;2.97;;;;;;;14.07;61.54;100918.41;4906476;29;20025;-62
2023/01/01 03:54:52;;;;;;;8.27;2.70;;;;;;;14.08;61.22;100901.84;4909626;29;20016;-62
2023/01/01 03:57:28;;;;;;;7.53;2.75;;;;;;;14.05;61.82;100922.78;4900804;29;20231;-63
2023/01/01 04:00:06;;;;;;;7.65;2.65;;;;;;;14.02;62.10;100908.75;4910930;29;20032;-62
2023/01/01 04:02:41;;;;;;;8.77;2.75;;;;;;;14.00;61.98;100913.97;4910848;29;20048;-63
2023/01/01 04:05:11;;;;;;;10.95;3.10;;;;;;;14.00;62.05;100911.34;4895297;29;20049;-63
2023/01/01 04:07:38;;;;;;;7.50;2.53;;;;;;;14.02;61.56;100928.00;4892203;29;20103;-64
2023/01/01 04:10:15;;;;;;;10.75;3.20;;;;;;;14.01;62.21;100931.47;4904123;29;20028;-63
2023/01/01 04:12:54;;;;;;;10.68;2.92;;;;;;;14.02;62.18;100917.50;4900730;29;20183;-63
2023/01/01 04:15:23;;;;;;;7.13;2.70;;;;;;;13.99;62.27;100935.81;4891947;29;20024;-63
2023/01/01 04:17:48;;;;;;;9.70;3.05;;;;;;;13.98;62.18;100935.81;4892154;29;20311;-62
2023/01/01 04:20:14;;;;;;;9.65;2.92;;;;;;;13.97;62.71;100940.16;4893360;29;20028;-63
2023/01/01 04:22:40;;;;;;;8.73;3.22;;;;;;;13.95;63.06;100936.66;4904487;29;20044;-63
2023/01/01 04:25:06;;;;;;;9.57;2.47;;;;;;;13.91;63.01;100942.72;4908416;29;20031;-63
2023/01/01 04:27:31;;;;;;;12.93;3.40;;;;;;;13.89;63.13;100932.22;4902625;29;20128;-62
2023/01/01 04:29:57;;;;;;;9.68;2.72;;;;;;;13.90;62.96;100917.38;4901727;29;20020;-62
2023/01/01 04:32:22;;;;;;;9.40;2.78;;;;;;;13.89;62.98;100920.88;4899633;29;20040;-62
2023/01/01 04:34:47;;;;;;;14.35;3.25;;;;;;;13.87;63.98;100928.69;4903950;29;20072;-63
2023/01/01 04:37:13;;;;;;;12.10;3.03;;;;;;;13.85;63.51;100937.41;4906451;29;20021;-63
2023/01/01 04:39:39;;;;;;;10.10;2.83;;;;;;;13.83;63.77;100939.09;4908634;29;20266;-63
2023/01/01 04:42:04;;;;;;;9.95;4.30;;;;;;;13.80;64.07;100957.41;4906768;29;20060;-62
2023/01/01 04:44:29;;;;;;;10.70;3.22;;;;;;;13.79;64.28;100946.06;4902476;29;20044;-62
2023/01/01 04:46:55;;;;;;;8.50;3.08;;;;;;;13.76;64.44;100948.66;4907754;29;20024;-69
2023/01/01 04:49:21;;;;;;;10.68;2.90;;;;;;;13.76;64.58;100951.28;4908507;29;20028;-69
2023/01/01 04:51:46;;;;;;;10.60;3.15;;;;;;;13.74;64.50;100953.88;4904663;29;20314;-69
2023/01/01 04:54:11;;;;;;;8.93;3.10;;;;;;;13.74;65.32;100958.22;4902647;29;20109;-69
2023/01/01 04:56:37;;;;;;;10.00;3.15;;;;;;;13.72;65.41;100960.81;4891256;29;20039;-69
2023/01/01 04:59:02;;;;;;;12.82;3.08;;;;;;;13.71;65.38;100963.41;4898319;29;20060;-69
2023/01/01 05:01:28;;;;;;;8.63;3.22;;;;;;;13.69;65.64;100966.00;4903442;29;20024;-69
2023/01/01 05:03:55;;;;;;;13.90;3.53;;;;;;;13.68;65.63;100969.50;4909930;29;20080;-69
2023/01/01 05:06:21;;;;;;;12.50;3.30;;;;;;;13.67;66.17;100961.63;4909681;29;20063;-69
2023/01/01 05:08:48;;;;;;;13.15;3.70;;;;;;;13.68;66.04;100981.72;4908394;29;20234;-69
2023/01/01 05:11:16;;;;;;;11.90;3.83;;;;;;;13.68;65.75;100979.97;4895495;29;20021;-69
2023/01/01 05:13:44;;;;;;;8.32;3.30;;;;;;;13.68;65.80;100994.81;4908774;29;20028;-69
2023/01/01 05:16:15;;;;;;;10.27;3.70;;;;;;;13.68;66.01;100989.56;4895155;29;20051;-69
2023/01/01 05:18:41;;;;;;;13.88;4.22;;;;;;;13.65;66.34;100993.00;4890924;29;20028;-68
2023/01/01 05:21:11;;;;;;;13.98;4.68;;;;;;;13.63;66.50;100989.50;4893863;29;20028;-69
2023/01/01 05:23:36;;;;;;;11.52;2.90;;;;;;;13.63;66.76;101006.94;4908619;29;20032;-69
2023/01/01 05:26:13;;;;;;;12.75;3.63;;;;;;;13.64;66.85;101024.41;4907863;29;20048;-69
2023/01/01 05:28:39;;;;;;;13.02;3.30;;;;;;;13.62;67.09;101040.09;4901543;29;20024;-69
2023/01/01 05:31:07;;;;;;;13.07;3.90;;;;;;;13.62;67.14;101034.88;4906438;29;20020;-69
2023/01/01 05:33:33;;;;;;;13.02;3.40;;;;;;;13.61;67.51;101030.47;4905119;29;20060;-69
2023/01/01 05:35:58;;;;;;;11.82;3.38;;;;;;;13.58;67.17;101043.53;4896799;29;20040;-69
2023/01/01 05:38:24;;;;;;;11.40;3.92;;;;;;;13.59;67.54;101039.19;4905285;29;20029;-69
2023/01/01 05:40:49;;;;;;;16.52;4.60;;;;;;;13.55;67.67;101049.59;4905873;29;20089;-69
2023/01/01 05:43:16;;;;;;;12.30;3.75;;;;;;;13.54;67.75;101046.97;4902582;29;20092;-70
2023/01/01 05:45:41;;;;;;;11.40;3.42;;;;;;;13.56;67.68;101037.41;4902512;29;20064;-69
2023/01/01 05:48:06;;;;;;;18.48;4.13;;;;;;;13.55;68.09;101051.34;4905604;29;20051;-69
2023/01/01 05:50:32;;;;;;;15.82;4.03;;;;;;;13.52;68.43;101054.78;4906472;29;20028;-69
2023/01/01 05:52:57;;;;;;;10.75;3.50;;;;;;;13.50;68.33;101053.03;4903445;29;20033;-69
2023/01/01 05:55:22;;;;;;;14.48;3.90;;;;;;;13.47;68.39;101072.19;4898016;29;20032;-69
2023/01/01 05:57:48;;;;;;;16.23;4.22;;;;;;;13.47;68.07;101064.34;4892558;29;20186;-69
2023/01/01 06:00:14;;;;;;;18.30;4.75;;;;;;;13.49;68.77;101080.06;4890111;29;20028;-69
2023/01/01 06:02:39;;;;;;;17.08;4.82;;;;;;;13.48;68.76;101083.53;4890082;29;20029;-69
2023/01/01 06:05:04;;;;;;;15.65;3.88;;;;;;;13.46;69.25;101098.34;4888975;29;20033;-69
2023/01/01 06:07:30;;;;;;;15.30;3.97;;;;;;;13.44;69.09;101086.94;4891508;29;20032;-69
2023/01/01 06:09:55;;;;;;;13.23;3.58;;;;;;;13.41;69.26;101082.53;4905728;29;20116;-69
2023/01/01 06:12:20;;;;;;;13.80;3.72;;;;;;;13.37;69.83;101089.47;4908486;29;20020;-69
2023/01/01 06:14:45;;;;;;;15.90;4.07;;;;;;;13.36;69.94;101103.41;4908832;29;20052;-69
2023/01/01 06:17:11;;;;;;;14.25;4.30;;;;;;;13.35;69.66;101104.28;4908615;29;20023;-69
2023/01/01 06:19:36;;;;;;;14.90;3.70;;;;;;;13.33;69.89;101113.81;4908841;29;20171;-69
2023/01/01 06:22:01;;;;;;;13.10;4.13;;;;;;;13.32;69.38;101098.94;4908625;29;20267;-69
2023/01/01 06:24:26;;;;;;;12.75;4.00;;;;;;;13.31;69.51;101107.69;4903601;29;20351;-69
2023/01/01 06:26:52;;;;;;;14.93;3.95;;;;;;;13.30;70.43;101124.22;4907542;29;20021;-69
2023/01/01 06:29:17;;;;;;;12.88;4.28;;;;;;;13.27;70.95;101142.50;4906088;29;20033;-69
2023/01/01 06:31:42;;;;;;;13.98;4.43;;;;;;;13.23;73.23;101170.31;4905499;29;20016;-69
2023/01/01 06:34:08;;;;;;;14.57;4.03;;;;;;;13.07;75.90;101170.91;4901439;29;20026;-69
2023/01/01 06:36:33;;;;;;;16.63;4.53;;;;;;;12.80;77.39;101179.09;4905517;29;20020;-69
2023/01/01 06:38:59;;;;;;;15.40;5.53;;;;;;;12.57;78.39;101181.25;4902010;29;20039;-69
2023/01/01 06:41:26;;;;;;;16.63;5.60;;;;;;;12.37;79.57;101180.81;4905956;29;20043;-70
2023/01/01 06:43:54;;;;;;;13.73;5.80;;;;;;;12.20;80.97;101188.31;4904032;29;20048;-69
2023/01/01 06:46:21;;;;;;;16.23;6.43;;;;;;;12.07;81.50;101179.31;4902900;29;20070;-69
2023/01/01 06:48:48;;;;;;;16.30;6.35;;;;;;;11.99;82.21;101173.91;4905928;29;20028;-69
2023/01/01 06:51:17;;;;;;;15.75;6.70;;;;;;;11.91;83.62;101198.94;4903654;29;20020;-69
2023/01/01 06:53:42;;;;;;;17.27;6.72;;;;;;;11.86;84.35;101198.84;4906722;29;20028;-70
2023/01/01 06:56:08;;;;;;;14.77;7.22;;;;;;;11.82;84.81;101210.03;4906162;29;20028;-69
2023/01/01 06:58:34;;;;;;;15.75;7.10;;;;;;;11.80;85.50;101219.56;4911079;29;20044;-70
2023/01/01 07:01:10;;;;;;;18.60;7.82;;;;;;;11.76;85.90;101220.31;4909675;29;20080;-69
2023/01/01 07:03:37;;;;;;;17.40;7.70;;;;;;;11.73;87.09;101225.47;4910366;29;20043;-70
2023/01/01 07:06:02;;;;;;;16.88;6.68;;;;;;;11.69;87.30;101221.00;4907446;29;20028;-69
2023/01/01 07:08:28;;;;;;;17.98;6.28;;;;;;;11.62;88.50;101222.59;4910702;29;20020;-69
2023/01/01 07:10:56;;;;;;;15.55;6.10;;;;;;;11.57;88.95;101229.41;4911147;29;20029;-70
2023/01/01 07:13:21;;;;;;;15.52;6.05;;;;;;;11.53;89.25;101231.06;4896215;29;20032;-70
2023/01/01 07:15:46;;;;;;;13.80;6.00;;;;;;;11.51;89.81;101248.41;4911787;29;20029;-69
2023/01/01 07:18:12;;;;;;;12.52;6.07;;;;;;;11.48;90.16;101243.09;4894273;29;20033;-70
2023/01/01 07:20:37;;;;;;;15.02;5.45;;;;;;;11.49;89.72;101244.88;4899798;29;20068;-70
2023/01/01 07:23:02;;;;;;;15.10;5.35;;;;;;;11.49;89.14;101240.53;4911473;29;20097;-69
2023/01/01 07:25:28;;;;;;;11.52;4.20;;;;;;;11.48;87.11;101237.88;4906932;29;20144;-69
2023/01/01 07:27:53;;;;;;;12.85;4.30;;;;;;;11.45;87.58;101246.50;4893025;29;20025;-63
2023/01/01 07:30:18;;;;;;;9.63;3.20;;;;;;;11.44;85.49;101243.88;4892721;29;20025;-63
2023/01/01 07:32:43;;;;;;;10.27;3.20;;;;;;;11.44;85.46;101254.31;4902695;29;20282;-62
2023/01/01 07:35:09;;;;;;;8.75;2.70;;;;;;;11.43;84.86;101253.44;4908853;29;20063;-63
2023/01/01 07:37:35;;;;;;;14.23;2.75;;;;;;;11.42;84.85;101258.63;4903656;29;20013;-63
2023/01/01 07:40:00;;;;;;;10.98;2.42;;;;;;;11.40;85.11;101265.53;4908422;29;20275;-63
2023/01/01 07:42:25;;;;;;;9.05;2.60;;;;;;;11.39;84.60;101272.44;4907539;29;20043;-63
2023/01/01 07:44:50;;;;;;;10.95;2.70;;;;;;;11.37;85.03;101270.63;4909709;29;20271;-63
2023/01/01 07:47:25;;;;;;;11.90;2.40;;;;;;;11.34;85.57;101268.84;4908494;29;20096;-63
2023/01/01 07:49:51;;;;;;;10.90;2.47;;;;;;;11.32;86.66;101280.94;4911073;29;20057;-63
2023/01/01 07:52:17;;;;;;;10.25;2.63;;;;;;;11.26;87.35;101286.88;4900987;29;20231;-63
2023/01/01 07:54:43;;;;;;;10.65;2.75;;;;;;;11.21;88.27;101290.19;4904649;29;20025;-63
2023/01/01 07:57:09;;;;;;;12.65;3.30;;;;;;;11.20;89.19;101307.59;4902207;29;20025;-63
2023/01/01 07:59:34;;;;;;;12.57;3.22;;;;;;;11.18;89.69;101303.16;4910745;29;20301;-63
2023/01/01 08:01:59;;;;;;;10.75;2.85;;;;;;;11.12;90.65;101307.38;4908849;29;20087;-62
2023/01/01 08:04:28;;;;;;;12.07;3.05;;;;;;;11.09;91.10;101315.13;4910020;29;20104;-63
2023/01/01 08:06:53;;;;;;;14.20;4.05;;;;;;;11.06;91.55;101337.59;4903141;29;20027;-63
2023/01/01 08:09:19;;;;;;;10.50;2.72;;;;;;;11.02;92.51;101347.06;4894042;29;20176;-62
2023/01/01 08:11:44;;;;;;;12.75;3.25;;;;;;;10.98;93.21;101362.53;4897543;29;20279;-62
2023/01/01 08:14:10;;;;;;;14.57;3.33;;;;;;;10.93;94.32;101359.81;4903554;29;20056;-63
2023/01/01 08:16:35;;;;;;;12.45;3.40;;;;;;;10.88;94.63;101362.28;4903670;29;20028;-63
2023/01/01 08:19:00;;;;;;;14.15;3.53;;;;;;;10.82;95.68;101359.50;4896537;29;20024;-63
2023/01/01 08:21:26;;;;;;;12.95;3.67;;;;;;;10.79;96.05;101357.66;4906789;29;20020;-64
2023/01/01 08:23:51;;;;;;;12.15;3.55;;;;;;;10.78;96.07;101355.00;4906115;29;20017;-63
2023/01/01 08:26:17;;;;;;;17.63;3.85;;;;;;;10.77;96.40;101354.13;4899435;29;20323;-70
2023/01/01 08:28:43;;;;;;;13.63;3.70;;;;;;;10.76;96.58;101349.75;4907726;29;20032;-70
2023/01/01 08:31:09;;;;;;;11.10;3.50;;;;;;;10.75;97.09;101349.72;4907988;29;20072;-70
2023/01/01 08:33:34;;;;;;;11.82;3.83;;;;;;;10.74;96.79;101359.22;4906740;29;20033;-70
2023/01/01 08:35:59;;;;;;;19.63;4.38;;;;;;;10.74;97.34;101366.19;4907946;29;20043;-70
2023/01/01 08:38:25;;;;;;;15.85;4.20;;;;;;;10.73;97.76;101365.31;4902380;29;20040;-70
2023/01/01 08:40:51;;;;;;;15.23;4.45;;;;;;;10.73;97.84;101372.22;4906132;29;20032;-70
2023/01/01 08:43:16;;;;;;;15.10;4.40;;;;;;;10.74;98.11;101377.47;4905652;29;20028;-70
2023/01/01 08:45:42;;;;;;;14.85;4.47;;;;;;;10.73;98.24;101377.44;4908170;29;20096;-71
2023/01/01 08:48:07;;;;;;;16.95;4.70;;;;;;;10.76;98.46;101395.78;4907059;29;20097;-70
2023/01/01 08:50:32;;;;;;;14.05;4.10;;;;;;;10.77;98.41;101385.38;4898598;29;20032;-71
2023/01/01 08:52:58;;;;;;;14.82;4.50;;;;;;;10.79;98.55;101395.91;4897126;29;20020;-70
2023/01/01 08:55:23;;;;;;;15.63;4.85;;;;;;;10.79;98.60;101401.13;4910040;29;20160;-70
2023/01/01 08:57:49;;;;;;;19.83;4.50;;;;;;;10.79;98.46;101395.91;4907843;29;20032;-63
2023/01/01 09:00:16;;;;;;;17.58;4.35;;;;;;;10.81;98.83;101401.16;4908817;29;20285;-62
2023/01/01 09:02:42;;;;;;;14.18;4.32;;;;;;;10.79;99.04;101406.31;4909331;29;20028;-63
2023/01/01 09:05:08;;;;;;;18.55;4.22;;;;;;;10.78;99.41;101391.50;4904893;29;20024;-63
2023/01/01 09:07:33;;;;;;;19.60;4.13;;;;;;;10.79;99.35;101380.25;4903996;29;20024;-62
2023/01/01 09:09:58;;;;;;;19.90;4.55;;;;;;;10.78;99.38;101378.47;4906398;29;20024;-63
2023/01/01 09:12:24;;;;;;;19.20;5.32;;;;;;;10.81;99.74;101385.50;4903027;29;20024;-63
2023/01/01 09:14:49;;;;;;;19.58;4.45;;;;;;;10.83;99.56;101389.03;4906575;29;20024;-62
2023/01/01 09:17:15;;;;;;;19.13;4.57;;;;;;;10.83;99.75;101395.13;4905643;29;20213;-63
2023/01/01 09:19:40;;;;;;;16.45;4.65;;;;;;;10.86;99.46;101400.47;4906889;29;20170;-62
2023/01/01 09:22:10;;;;;;;16.80;4.80;;;;;;;10.87;100.00;101399.59;4907132;29;20025;-63
2023/01/01 09:24:35;;;;;;;17.13;4.30;;;;;;;10.87;99.97;101394.41;4903974;29;20029;-63
2023/01/01 09:27:00;;;;;;;17.20;4.57;;;;;;;10.86;100.00;101392.66;4901541;29;20362;-63
2023/01/01 09:29:26;;;;;;;17.67;4.90;;;;;;;10.87;100.00;101397.00;4898517;29;20274;-63
2023/01/01 09:31:51;;;;;;;21.05;4.75;;;;;;;10.89;100.00;101395.34;4905704;29;20036;-63
2023/01/01 09:34:16;;;;;;;17.88;4.63;;;;;;;10.90;100.00;101398.81;4908716;29;20220;-63
2023/01/01 09:36:42;;;;;;;11.82;3.95;;;;;;;10.92;100.00;101412.78;4908929;29;20036;-62
2023/01/01 09:39:11;;;;;;;16.70;4.43;;;;;;;10.91;100.00;101418.84;4895483;29;20075;-63
2023/01/01 09:41:58;;;;;;;16.95;4.40;;;;;;;10.94;100.00;101430.25;4903880;29;20037;-63
2023/01/01 09:44:42;;;;;;;17.77;4.32;;;;;;;10.93;100.00;101425.00;4908707;29;20014;-62
2023/01/01 09:47:35;;;;;;;14.55;4.43;;;;;;;10.88;100.00;101414.41;4903510;29;20147;-62
2023/01/01 09:50:06;;;;;;;17.50;5.10;;;;;;;10.85;100.00;101411.72;4906682;29;20104;-63
2023/01/01 09:52:42;;;;;;;15.07;5.70;;;;;;;10.83;100.00;101415.09;4904658;29;20032;-63
2023/01/01 09:55:37;;;;;;;15.90;5.15;;;;;;;10.81;100.00;101424.63;4906645;29;20224;-62
2023/01/01 09:58:02;;;;;;;13.60;5.03;;;;;;;10.79;100.00;101415.03;4900195;29;20020;-69
2023/01/01 10:00:32;;;;;;;14.50;4.93;;;;;;;10.77;100.00;101421.88;4904211;29;20030;-69
2023/01/01 10:03:04;;;;;;;11.98;4.88;;;;;;;10.73;100.00;101409.63;4903465;29;20216;-69
2023/01/01 10:06:10;;;;;;;13.10;5.32;;;;;;;10.70;100.00;101414.75;4905680;29;20036;-69
2023/01/01 10:08:47;;;;;;;16.13;4.55;;;;;;;10.67;100.00;101416.34;4899469;29;20036;-69
2023/01/01 10:11:46;;;;;;;16.67;4.95;;;;;;;10.65;100.00;101415.41;4906691;29;20031;-69
2023/01/01 10:14:18;;;;;;;;;;;;;;;10.69;98.30;101410.34;4901037;29;20083;-70
2023/01/01 10:16:47;;;;;;;9.65;4.13;;;;;;;10.63;100.00;101409.25;4904246;29;19907;-67
2023/01/01 10:19:26;;;;;;;11.07;4.45;;;;;;;10.61;100.00;101406.59;4897294;29;20032;-67
2023/01/01 10:21:54;;;;;;;11.48;4.95;;;;;;;10.64;100.00;101416.25;4903976;29;20045;-67
2023/01/01 10:24:41;;;;;;;11.77;4.28;;;;;;;10.67;100.00;101412.00;4899622;29;20176;-67
2023/01/01 10:27:24;;;;;;;12.00;4.90;;;;;;;10.70;100.00;101408.63;4898660;29;20047;-67
2023/01/01 10:29:51;;;;;;;13.65;4.45;;;;;;;10.75;100.00;101409.66;4906990;29;20029;-66
2023/01/01 10:32:20;;;;;;;12.80;5.03;;;;;;;10.79;99.57;101416.75;4888369;29;20243;-67
2023/01/01 10:34:47;;;;;;;13.38;4.47;;;;;;;10.83;99.46;101415.97;4889754;29;20237;-66
2023/01/01 10:37:14;;;;;;;11.38;4.72;;;;;;;10.87;99.24;101417.84;4889685;29;20024;-67
2023/01/01 10:39:40;;;;;;;13.48;4.97;;;;;;;10.93;98.66;101406.75;4889755;29;20327;-67
2023/01/01 10:42:05;;;;;;;13.00;4.43;;;;;;;10.99;98.54;101412.13;4891206;29;20237;-66
2023/01/01 10:44:35;;;;;;;13.10;4.32;;;;;;;11.03;97.59;101419.22;4889769;29;20225;-67
2023/01/01 10:47:39;;;;;;;12.55;4.32;;;;;;;11.09;97.28;101410.69;4895775;29;20072;-67
2023/01/01 10:50:07;;;;;;;11.65;3.83;;;;;;;11.14;96.41;101406.53;4908194;29;20036;-67
2023/01/01 10:52:39;;;;;;;10.38;3.58;;;;;;;11.24;95.49;101418.09;4897649;29;20023;-67
2023/01/01 10:55:17;;;;;;;9.38;3.67;;;;;;;11.29;95.35;101414.78;4889922;29;20167;-67
2023/01/01 10:57:44;;;;;;;11.10;3.60;;;;;;;11.35;94.91;101408.88;4898192;29;20033;-67
2023/01/01 11:00:21;;;;;;;12.07;4.13;;;;;;;11.38;94.45;101401.13;4889450;29;20240;-66
2023/01/01 11:02:47;;;;;;;12.43;3.58;;;;;;;11.45;93.91;101415.25;4889582;29;20028;-67
2023/01/01 11:05:16;;;;;;;11.40;4.20;;;;;;;11.51;94.43;101419.78;4895190;29;20024;-67
2023/01/01 11:07:43;;;;;;;10.05;3.90;;;;;;;11.57;93.63;101423.47;4908121;29;20271;-67
2023/01/01 11:10:22;;;;;;;11.85;3.58;;;;;;;11.63;93.12;101418.41;4908137;29;20013;-66
2023/01/01 11:12:50;;;;;;;12.05;3.72;;;;;;;11.68;92.78;101423.75;4905417;29;20274;-66
2023/01/01 11:15:21;;;;;;;9.02;2.92;;;;;;;11.74;91.82;101430.88;4894836;29;20020;-67
2023/01/01 11:17:47;;;;;;;11.25;3.35;;;;;;;11.78;91.46;101435.34;4908105;29;20032;-67
2023/01/01 11:20:19;;;;;;;12.07;3.28;;;;;;;11.82;91.29;101427.63;4906926;29;20064;-66
2023/01/01 11:22:51;;;;;;;11.90;3.25;;;;;;;11.87;90.68;101443.41;4908028;29;20215;-67
2023/01/01 11:25:20;;;;;;;10.23;3.03;;;;;;;11.93;91.33;101448.84;4906572;29;20028;-67
2023/01/01 11:27:46;;;;;;;11.93;3.55;;;;;;;11.97;90.26;101449.81;4893542;29;20398;-67
2023/01/01 11:30:27;;;;;;;11.10;3.10;;;;;;;12.02;89.94;101434.28;4889375;29;20210;-67
2023/01/01 11:33:03;;;;;;;9.35;2.95;;;;;;;12.07;89.01;101435.28;4888460;29;20056;-66
2023/01/01 11:35:32;;;;;;;10.98;3.15;;;;;;;12.11;89.42;101432.81;4902186;29;20039;-67